Time;durP1;ratioP1;P1;durP2;ratioP2;P2;SDS_P1;SDS_P2;PMS_P1;PMS_P2;Temp;Humidity;BMP_temperature;BMP_pressure;BME280_temperature;BME280_humidity;BME280_pressure;Samples;Min_cycle;Max_cycle;Signal;HPM_P1;HPM_P2
2021/11/18 00:00:24;;;;;;;;;;;11.50;56.80;;;;;;5074016;28;20269;-71
2021/11/18 00:02:51;;;;;;;;;;;11.50;56.80;;;;;;5073867;28;19920;-71
2021/11/18 00:05:17;;;;;;;;;;;11.50;56.80;;;;;;5073893;28;19909;-71
2021/11/18 00:07:44;;;;;;;;;;;11.50;56.70;;;;;;5073712;28;19916;-71
2021/11/18 00:10:11;;;;;;;;;;;11.50;57.30;;;;;;5073681;28;19923;-71
2021/11/18 00:12:37;;;;;;;;;;;11.50;56.80;;;;;;5073627;28;19908;-71
2021/11/18 00:15:03;;;;;;;;;;;11.50;56.80;;;;;;5073301;28;19926;-71
2021/11/18 00:17:28;;;;;;;;;;;11.50;56.80;;;;;;5073291;28;19915;-71
2021/11/18 00:19:54;;;;;;;;;;;11.50;56.80;;;;;;5073342;28;19912;-71
2021/11/18 00:22:19;;;;;;;;;;;11.50;56.90;;;;;;5073297;28;20281;-70
2021/11/18 00:24:45;;;;;;;;;;;11.50;56.90;;;;;;5073354;28;20007;-70
2021/11/18 00:27:11;;;;;;;;;;;11.50;56.90;;;;;;5071918;28;20451;-70
2021/11/18 00:29:36;;;;;;;;;;;11.40;56.90;;;;;;5073102;28;19916;-70
2021/11/18 00:32:02;;;;;;;;;;;11.40;57.00;;;;;;5073156;28;19912;-70
2021/11/18 00:34:28;;;;;;;;;;;11.40;57.00;;;;;;5071892;28;19909;-70
2021/11/18 00:36:53;;;;;;;;;;;11.40;57.00;;;;;;5073041;28;19967;-70
2021/11/18 00:39:19;;;;;;;;;;;11.40;57.10;;;;;;5073015;28;20251;-70
2021/11/18 00:41:44;;;;;;;;;;;11.40;57.10;;;;;;5072917;28;19935;-70
2021/11/18 00:44:10;;;;;;;;;;;11.40;57.10;;;;;;5072738;28;19912;-70
2021/11/18 00:46:36;;;;;;;;;;;11.40;57.10;;;;;;5072856;28;20312;-70
2021/11/18 00:49:01;;;;;;;;;;;11.40;57.10;;;;;;5072807;28;19999;-70
2021/11/18 00:51:27;;;;;;;;;;;11.40;57.10;;;;;;5073163;28;19976;-70
2021/11/18 00:53:55;;;;;;;;;;;11.40;57.80;;;;;;5072804;28;19909;-70
2021/11/18 00:56:22;;;;;;;;;;;11.30;57.10;;;;;;5072662;28;19912;-70
2021/11/18 00:58:51;;;;;;;;;;;11.30;57.20;;;;;;5072737;28;19904;-71
2021/11/18 01:01:17;;;;;;;;;;;11.30;57.20;;;;;;5072693;28;19912;-70
2021/11/18 01:03:42;;;;;;;;;;;11.30;57.20;;;;;;5072571;28;19915;-70
2021/11/18 01:06:08;;;;;;;;;;;11.30;57.30;;;;;;5071910;28;19912;-70
2021/11/18 01:08:34;;;;;;;;;;;11.20;57.20;;;;;;5072590;28;19919;-70
2021/11/18 01:11:01;;;;;;;;;;;11.20;57.30;;;;;;5072585;28;19989;-70
2021/11/18 01:13:28;;;;;;;;;;;11.20;57.30;;;;;;5072536;28;19909;-70
2021/11/18 01:15:54;;;;;;;;;;;11.20;57.40;;;;;;5066359;28;20297;-70
2021/11/18 01:18:20;;;;;;;;;;;11.20;57.40;;;;;;5052322;28;19909;-70
2021/11/18 01:20:46;;;;;;;;;;;11.20;57.50;;;;;;5052262;28;19983;-70
2021/11/18 01:23:17;;;;;;;;;;;11.20;57.50;;;;;;5052267;28;20378;-70
2021/11/18 01:25:43;;;;;;;;;;;11.20;57.50;;;;;;5052222;28;19945;-70
2021/11/18 01:28:09;;;;;;;;;;;11.20;57.50;;;;;;5051026;28;19916;-70
2021/11/18 01:30:36;;;;;;;;;;;11.20;57.60;;;;;;5052188;28;20374;-70
2021/11/18 01:33:03;;;;;;;;;;;11.20;57.60;;;;;;5052212;28;19995;-70
2021/11/18 01:35:29;;;;;;;;;;;11.20;57.60;;;;;;5052080;28;19912;-70
2021/11/18 01:37:55;;;;;;;;;;;11.30;57.60;;;;;;5052165;28;20270;-71
2021/11/18 01:40:23;;;;;;;;;;;11.30;57.50;;;;;;5052018;28;19916;-70
2021/11/18 01:42:49;;;;;;;;;;;11.30;57.50;;;;;;5050873;28;20004;-70
2021/11/18 01:45:16;;;;;;;;;;;11.30;57.50;;;;;;5052190;28;19909;-70
2021/11/18 01:47:45;;;;;;;;;;;11.30;57.50;;;;;;5056263;28;19958;-70
2021/11/18 01:50:11;;;;;;;;;;;11.30;57.50;;;;;;5072163;28;19999;-70
2021/11/18 01:52:38;;;;;;;;;;;11.30;57.50;;;;;;5072106;28;20263;-71
2021/11/18 01:55:03;;;;;;;;;;;11.30;57.50;;;;;;5071969;28;19912;-71
2021/11/18 01:57:32;;;;;;;;;;;11.30;57.50;;;;;;5072105;28;19935;-70
2021/11/18 01:59:58;;;;;;;;;;;11.30;57.50;;;;;;5071974;28;20320;-70
2021/11/18 02:02:25;;;;;;;;;;;11.40;57.50;;;;;;5071846;28;19913;-70
2021/11/18 02:04:52;;;;;;;;;;;11.40;57.50;;;;;;5071814;28;19970;-70
2021/11/18 02:07:18;;;;;;;;;;;11.40;57.50;;;;;;5070467;28;20377;-70
2021/11/18 02:09:46;;;;;;;;;;;11.40;57.40;;;;;;5071747;28;19917;-71
2021/11/18 02:12:17;;;;;;;;;;;11.40;57.40;;;;;;5071784;28;19909;-70
2021/11/18 02:14:43;;;;;;;;;;;11.40;57.30;;;;;;5071565;28;19916;-70
2021/11/18 02:17:10;;;;;;;;;;;11.40;57.30;;;;;;5058214;28;19909;-70
2021/11/18 02:19:38;;;;;;;;;;;11.40;57.30;;;;;;5055441;28;19928;-70
2021/11/18 02:22:07;;;;;;;;;;;11.40;57.30;;;;;;5055471;28;20243;-70
2021/11/18 02:24:41;;;;;;;;;;;11.40;57.30;;;;;;5055522;28;20012;-70
2021/11/18 02:27:07;;;;;;;;;;;11.40;57.40;;;;;;5054256;28;19930;-70
2021/11/18 02:29:33;;;;;;;;;;;11.30;57.30;;;;;;5055329;28;20011;-70
2021/11/18 02:32:01;;;;;;;;;;;11.30;57.30;;;;;;5055466;28;20008;-70
2021/11/18 02:34:32;;;;;;;;;;;11.30;57.30;;;;;;5054212;28;19909;-70
2021/11/18 02:36:57;;;;;;;;;;;11.40;57.30;;;;;;5055457;28;19995;-70
2021/11/18 02:39:23;;;;;;;;;;;11.30;57.30;;;;;;5055423;28;19956;-70
2021/11/18 02:41:49;;;;;;;;;;;11.30;57.30;;;;;;5055246;28;19923;-70
2021/11/18 02:44:14;;;;;;;;;;;11.30;57.40;;;;;;5055406;28;19995;-70
2021/11/18 02:46:40;;;;;;;;;;;11.30;57.40;;;;;;5055297;28;19908;-70
2021/11/18 02:49:05;;;;;;;;;;;11.30;57.50;;;;;;5054917;28;20309;-70
2021/11/18 02:51:32;;;;;;;;;;;11.30;57.50;;;;;;5055232;28;19909;-70
2021/11/18 02:54:02;;;;;;;;;;;11.30;58.10;;;;;;5073633;28;19908;-70
2021/11/18 02:56:29;;;;;;;;;;;11.20;57.60;;;;;;5075196;28;19908;-70
2021/11/18 02:58:55;;;;;;;;;;;11.20;57.70;;;;;;5073627;28;20467;-70
2021/11/18 03:01:23;;;;;;;;;;;11.20;57.60;;;;;;5074966;28;20273;-70
2021/11/18 03:03:49;;;;;;;;;;;11.20;57.70;;;;;;5074905;28;20421;-70
2021/11/18 03:06:15;;;;;;;;;;;11.10;57.70;;;;;;5074947;28;19996;-70
2021/11/18 03:08:42;;;;;;;;;;;11.10;57.70;;;;;;5074836;28;19909;-70
2021/11/18 03:11:08;;;;;;;;;;;11.10;57.80;;;;;;5074797;28;19913;-70
2021/11/18 03:13:34;;;;;;;;;;;11.10;57.80;;;;;;5074758;28;19940;-70
2021/11/18 03:16:00;;;;;;;;;;;11.10;57.90;;;;;;5074524;28;19924;-70
2021/11/18 03:18:26;;;;;;;;;;;11.00;57.90;;;;;;5074453;28;19915;-70
2021/11/18 03:20:53;;;;;;;;;;;11.00;57.90;;;;;;5074388;28;19944;-70
2021/11/18 03:23:19;;;;;;;;;;;11.00;58.00;;;;;;5073178;28;19909;-71
2021/11/18 03:25:47;;;;;;;;;;;11.00;58.10;;;;;;5074481;28;19934;-70
2021/11/18 03:28:13;;;;;;;;;;;10.90;58.00;;;;;;5073547;28;19957;-70
2021/11/18 03:30:40;;;;;;;;;;;10.90;58.00;;;;;;5074291;28;19912;-70
2021/11/18 03:33:08;;;;;;;;;;;10.90;58.10;;;;;;5074300;28;19909;-70
2021/11/18 03:35:34;;;;;;;;;;;10.90;58.10;;;;;;5074388;28;19909;-70
2021/11/18 03:38:00;;;;;;;;;;;10.90;58.20;;;;;;5074195;28;20430;-70
2021/11/18 03:40:27;;;;;;;;;;;10.90;58.20;;;;;;5072741;28;19908;-70
2021/11/18 03:42:53;;;;;;;;;;;10.90;58.20;;;;;;5074141;28;19919;-70
2021/11/18 03:45:19;;;;;;;;;;;10.90;58.30;;;;;;5074177;28;20389;-70
2021/11/18 03:47:45;;;;;;;;;;;10.90;58.30;;;;;;5069074;28;19909;-70
2021/11/18 03:50:11;;;;;;;;;;;10.90;58.30;;;;;;5053945;28;19999;-70
2021/11/18 03:52:37;;;;;;;;;;;10.90;58.30;;;;;;5072131;28;20449;-70
2021/11/18 03:55:05;;;;;;;;;;;10.90;58.30;;;;;;5073860;28;19952;-71
2021/11/18 03:57:31;;;;;;;;;;;10.90;58.30;;;;;;5073849;28;20314;-71
2021/11/18 03:59:57;;;;;;;;;;;10.80;58.30;;;;;;5057850;28;19963;-71
2021/11/18 04:02:22;;;;;;;;;;;10.90;58.30;;;;;;5052511;28;20007;-71
2021/11/18 04:04:49;;;;;;;;;;;10.90;58.30;;;;;;5053766;28;19909;-71
2021/11/18 04:07:15;;;;;;;;;;;10.90;58.30;;;;;;5053670;28;19959;-71
2021/11/18 04:09:41;;;;;;;;;;;10.90;58.30;;;;;;5053687;28;19913;-71
2021/11/18 04:12:08;;;;;;;;;;;10.80;58.30;;;;;;5083476;28;19908;-70
2021/11/18 04:14:35;;;;;;;;;;;10.90;58.40;;;;;;5093594;28;19948;-70
2021/11/18 04:17:01;;;;;;;;;;;10.90;58.50;;;;;;5093740;28;20006;-70
2021/11/18 04:19:26;;;;;;;;;;;10.80;58.40;;;;;;5093423;28;20343;-70
2021/11/18 04:21:52;;;;;;;;;;;10.80;58.40;;;;;;5073657;28;19912;-70
2021/11/18 04:24:20;;;;;;;;;;;10.80;58.50;;;;;;5074213;28;20297;-70
2021/11/18 04:26:46;;;;;;;;;;;10.90;58.50;;;;;;5073269;28;20374;-71
2021/11/18 04:29:14;;;;;;;;;;;10.90;58.50;;;;;;5073038;28;19909;-70
2021/11/18 04:31:39;;;;;;;;;;;10.80;58.50;;;;;;5072783;28;19916;-70
2021/11/18 04:34:06;;;;;;;;;;;10.80;58.60;;;;;;5068651;28;20354;-70
2021/11/18 04:36:34;;;;;;;;;;;10.80;58.60;;;;;;5082128;28;20002;-70
2021/11/18 04:38:59;;;;;;;;;;;10.80;58.60;;;;;;5092263;28;20003;-70
2021/11/18 04:41:26;;;;;;;;;;;10.80;58.60;;;;;;5092266;28;20046;-69
2021/11/18 04:43:52;;;;;;;;;;;10.80;58.60;;;;;;5091941;28;19916;-69
2021/11/18 04:46:18;;;;;;;;;;;10.80;58.70;;;;;;5092213;28;19931;-69
2021/11/18 04:48:44;;;;;;;;;;;10.80;58.70;;;;;;5076006;28;20050;-71
2021/11/18 04:51:11;;;;;;;;;;;10.80;58.70;;;;;;5071941;28;19911;-69
2021/11/18 04:53:37;;;;;;;;;;;10.80;58.70;;;;;;5071864;28;19912;-70
2021/11/18 04:56:03;;;;;;;;;;;10.80;58.80;;;;;;5071896;28;19991;-70
2021/11/18 04:58:29;;;;;;;;;;;10.80;58.80;;;;;;5072371;28;20278;-69
2021/11/18 05:00:55;;;;;;;;;;;10.80;58.80;;;;;;5072578;28;20089;-69
2021/11/18 05:03:22;;;;;;;;;;;10.80;58.70;;;;;;5071265;28;20836;-69
2021/11/18 05:05:48;;;;;;;;;;;10.80;58.80;;;;;;5071622;28;19912;-69
2021/11/18 05:08:14;;;;;;;;;;;10.80;58.80;;;;;;5071549;28;19999;-70
2021/11/18 05:10:40;;;;;;;;;;;10.80;58.80;;;;;;5071434;28;20296;-69
2021/11/18 05:13:06;;;;;;;;;;;10.80;58.80;;;;;;5072298;28;19927;-70
2021/11/18 05:15:33;;;;;;;;;;;10.70;58.80;;;;;;5071267;28;19921;-70
2021/11/18 05:17:58;;;;;;;;;;;10.80;58.80;;;;;;5071541;28;20370;-70
2021/11/18 05:20:24;;;;;;;;;;;10.80;58.80;;;;;;5069680;28;19958;-70
2021/11/18 05:22:50;;;;;;;;;;;10.70;58.90;;;;;;5071020;28;19923;-70
2021/11/18 05:25:17;;;;;;;;;;;10.70;58.90;;;;;;5073469;28;19943;-70
2021/11/18 05:27:43;;;;;;;;;;;10.70;58.80;;;;;;5091406;28;19943;-70
2021/11/18 05:30:13;;;;;;;;;;;10.70;58.80;;;;;;5091297;28;19912;-70
2021/11/18 05:32:39;;;;;;;;;;;10.80;58.90;;;;;;5090156;28;19972;-70
2021/11/18 05:35:05;;;;;;;;;;;10.80;58.90;;;;;;5060632;28;20308;-70
2021/11/18 05:37:31;;;;;;;;;;;10.80;58.80;;;;;;5054607;28;19943;-70
2021/11/18 05:39:57;;;;;;;;;;;10.80;58.90;;;;;;5071187;28;20354;-70
2021/11/18 05:42:22;;;;;;;;;;;10.80;58.90;;;;;;5071037;28;19920;-71
2021/11/18 05:44:49;;;;;;;;;;;10.70;58.90;;;;;;5071091;28;19908;-70
2021/11/18 05:47:19;;;;;;;;;;;10.70;58.90;;;;;;5071164;28;19993;-70
2021/11/18 05:49:44;;;;;;;;;;;10.80;59.00;;;;;;5071752;28;19947;-70
2021/11/18 05:52:10;;;;;;;;;;;10.80;59.00;;;;;;5072705;28;19981;-70
2021/11/18 05:54:36;;;;;;;;;;;10.80;59.00;;;;;;5075210;28;19916;-70
2021/11/18 05:57:02;;;;;;;;;;;10.70;58.90;;;;;;5075186;28;19966;-70
2021/11/18 05:59:28;;;;;;;;;;;10.80;59.00;;;;;;5075167;28;19915;-70
2021/11/18 06:01:53;;;;;;;;;;;10.70;58.90;;;;;;5077757;28;20013;-70
2021/11/18 06:04:19;;;;;;;;;;;10.80;59.00;;;;;;5071562;28;19913;-70
2021/11/18 06:06:45;;;;;;;;;;;10.80;58.90;;;;;;5054936;28;19954;-70
2021/11/18 06:09:11;;;;;;;;;;;10.80;58.90;;;;;;5055012;28;19919;-70
2021/11/18 06:11:38;;;;;;;;;;;10.80;59.00;;;;;;5055168;28;19909;-70
2021/11/18 06:14:04;;;;;;;;;;;10.80;58.90;;;;;;5061173;28;19918;-70
2021/11/18 06:16:30;;;;;;;;;;;10.80;58.90;;;;;;5095119;28;19951;-70
2021/11/18 06:19:01;;;;;;;;;;;10.80;58.90;;;;;;5094863;28;19951;-70
2021/11/18 06:21:27;;;;;;;;;;;10.80;59.00;;;;;;5093563;28;20384;-70
2021/11/18 06:23:53;;;;;;;;;;;10.80;58.90;;;;;;5094996;28;20489;-70
2021/11/18 06:26:19;;;;;;;;;;;10.80;58.90;;;;;;5093084;28;19948;-70
2021/11/18 06:28:45;;;;;;;;;;;10.70;58.90;;;;;;5095139;28;19939;-70
2021/11/18 06:31:11;;;;;;;;;;;10.70;59.00;;;;;;5094602;28;20317;-69
2021/11/18 06:33:37;;;;;;;;;;;10.70;59.00;;;;;;5088127;28;19943;-70
2021/11/18 06:36:03;;;;;;;;;;;10.80;59.00;;;;;;5054395;28;19912;-70
2021/11/18 06:38:29;;;;;;;;;;;10.80;58.90;;;;;;5055641;28;19928;-70
2021/11/18 06:40:54;;;;;;;;;;;10.80;58.90;;;;;;5094433;28;20006;-69
2021/11/18 06:43:21;;;;;;;;;;;10.80;58.90;;;;;;5094473;28;19980;-71
2021/11/18 06:45:47;;;;;;;;;;;10.80;58.90;;;;;;5092836;28;19913;-70
2021/11/18 06:48:14;;;;;;;;;;;10.80;58.80;;;;;;5060581;28;19917;-70
2021/11/18 06:50:39;;;;;;;;;;;10.80;58.80;;;;;;5054362;28;19908;-70
2021/11/18 06:53:05;;;;;;;;;;;10.90;58.80;;;;;;5054299;28;20497;-71
2021/11/18 06:55:31;;;;;;;;;;;10.80;58.80;;;;;;5055478;28;20285;-70
2021/11/18 06:57:56;;;;;;;;;;;10.90;58.80;;;;;;5093086;28;19951;-71
2021/11/18 07:00:22;;;;;;;;;;;10.90;58.80;;;;;;5094207;28;20182;-70
2021/11/18 07:02:48;;;;;;;;;;;10.90;58.80;;;;;;5092372;28;20046;-70
2021/11/18 07:05:14;;;;;;;;;;;10.90;58.80;;;;;;5054978;28;19920;-70
2021/11/18 07:07:39;;;;;;;;;;;10.90;58.80;;;;;;5053800;28;19916;-70
2021/11/18 07:10:06;;;;;;;;;;;10.90;58.80;;;;;;5092338;28;19966;-70
2021/11/18 07:12:32;;;;;;;;;;;11.00;58.90;;;;;;5092475;28;19999;-70
2021/11/18 07:14:58;;;;;;;;;;;11.00;58.90;;;;;;5093721;28;20456;-70
2021/11/18 07:17:23;;;;;;;;;;;11.00;58.90;;;;;;5093832;28;19915;-70
2021/11/18 07:19:49;;;;;;;;;;;11.10;58.90;;;;;;5093716;28;19912;-70
2021/11/18 07:22:15;;;;;;;;;;;11.10;58.90;;;;;;5091555;28;19916;-70
2021/11/18 07:24:42;;;;;;;;;;;11.10;58.90;;;;;;5093625;28;20254;-70
2021/11/18 07:27:08;;;;;;;;;;;11.20;58.90;;;;;;5093680;28;20277;-70
2021/11/18 07:29:34;;;;;;;;;;;11.20;58.80;;;;;;5093648;28;19952;-70
2021/11/18 07:32:00;;;;;;;;;;;11.30;58.80;;;;;;5082245;28;19909;-70
2021/11/18 07:34:25;;;;;;;;;;;11.30;58.80;;;;;;5063377;28;19916;-70
2021/11/18 07:36:51;;;;;;;;;;;11.30;58.70;;;;;;5053281;28;19915;-70
2021/11/18 07:39:22;;;;;;;;;;;11.30;58.60;;;;;;5062587;28;19954;-70
2021/11/18 07:41:51;;;;;;;;;;;11.30;58.60;;;;;;5082317;28;20007;-70
2021/11/18 07:44:17;;;;;;;;;;;11.40;58.60;;;;;;5093500;28;20449;-70
2021/11/18 07:46:43;;;;;;;;;;;11.50;58.60;;;;;;5061749;28;19908;-70
2021/11/18 07:49:09;;;;;;;;;;;11.50;58.60;;;;;;5052981;28;19913;-70
2021/11/18 07:51:36;;;;;;;;;;;11.60;58.60;;;;;;5067602;28;20340;-70
2021/11/18 07:54:02;;;;;;;;;;;11.60;58.50;;;;;;5091932;28;19908;-70
2021/11/18 07:56:30;;;;;;;;;;;11.60;58.40;;;;;;5093034;28;20271;-70
2021/11/18 07:58:55;;;;;;;;;;;11.60;58.30;;;;;;5093117;28;19912;-70
2021/11/18 08:01:21;;;;;;;;;;;11.70;58.50;;;;;;5082056;28;19917;-70
2021/11/18 08:03:47;;;;;;;;;;;11.80;58.60;;;;;;5068314;28;19913;-70
2021/11/18 08:06:14;;;;;;;;;;;11.80;58.50;;;;;;5052428;28;20011;-70
2021/11/18 08:08:45;;;;;;;;;;;11.90;58.60;;;;;;5051260;28;20286;-71
2021/11/18 08:11:25;;;;;;;;;;;12.00;58.50;;;;;;5052374;28;19912;-71
2021/11/18 08:13:50;;;;;;;;;;;12.10;58.40;;;;;;5052168;28;19915;-71
2021/11/18 08:16:16;;;;;;;;;;;12.10;58.80;;;;;;5073167;28;19921;-71
2021/11/18 08:18:42;;;;;;;;;;;12.20;58.30;;;;;;5072508;28;19909;-72
2021/11/18 08:21:07;;;;;;;;;;;12.30;58.20;;;;;;5071723;28;19912;-72
2021/11/18 08:23:33;;;;;;;;;;;12.40;58.20;;;;;;5073383;28;19909;-71
2021/11/18 08:25:59;;;;;;;;;;;12.40;58.00;;;;;;5089880;28;19908;-72
2021/11/18 08:28:25;;;;;;;;;;;12.40;57.80;;;;;;5093541;28;19916;-71
2021/11/18 08:30:50;;;;;;;;;;;12.40;57.70;;;;;;5092063;28;19915;-71
2021/11/18 08:33:16;;;;;;;;;;;12.40;57.60;;;;;;5092067;28;20014;-71
2021/11/18 08:35:42;;;;;;;;;;;12.40;57.60;;;;;;5093177;28;19915;-71
2021/11/18 08:38:10;;;;;;;;;;;12.40;58.10;;;;;;5073894;28;19919;-71
2021/11/18 08:40:37;;;;;;;;;;;12.50;57.60;;;;;;5085415;28;19916;-72
2021/11/18 08:43:03;;;;;;;;;;;12.50;57.60;;;;;;5074405;28;19912;-71
2021/11/18 08:45:29;;;;;;;;;;;12.60;57.60;;;;;;5072602;28;19913;-71
2021/11/18 08:47:54;;;;;;;;;;;12.60;57.50;;;;;;5071624;28;19931;-72
2021/11/18 08:50:21;;;;;;;;;;;12.60;57.60;;;;;;5072868;28;19930;-72
2021/11/18 08:52:47;;;;;;;;;;;12.70;57.70;;;;;;5089273;28;19961;-71
2021/11/18 08:55:18;;;;;;;;;;;12.80;57.60;;;;;;5092929;28;19912;-72
2021/11/18 08:57:45;;;;;;;;;;;12.90;57.60;;;;;;5092941;28;19911;-69
2021/11/18 09:00:13;;;;;;;;;;;13.00;57.60;;;;;;5092758;28;19908;-70
2021/11/18 09:02:39;;;;;;;;;;;13.00;57.30;;;;;;5092711;28;19916;-70
2021/11/18 09:05:04;;;;;;;;;;;13.10;57.00;;;;;;5089084;28;19908;-70
2021/11/18 09:07:30;;;;;;;;;;;13.10;56.80;;;;;;5092750;28;19912;-70
2021/11/18 09:09:56;;;;;;;;;;;13.10;56.80;;;;;;5092612;28;20298;-70
2021/11/18 09:12:23;;;;;;;;;;;13.20;56.70;;;;;;5092755;28;20403;-70
2021/11/18 09:14:49;;;;;;;;;;;13.20;56.60;;;;;;5092353;28;19942;-70
2021/11/18 09:17:14;;;;;;;;;;;13.20;56.50;;;;;;5075538;28;20362;-70
2021/11/18 09:19:41;;;;;;;;;;;13.20;56.40;;;;;;5072146;28;19915;-70
2021/11/18 09:22:08;;;;;;;;;;;13.20;56.30;;;;;;5072069;28;19916;-71
2021/11/18 09:24:38;;;;;;;;;;;13.20;56.20;;;;;;5072219;28;19909;-70
2021/11/18 09:27:10;;;;;;;;;;;13.20;56.10;;;;;;5071484;28;19947;-71
2021/11/18 09:29:36;;;;;;;;;;;13.20;56.00;;;;;;5086528;28;19919;-71
2021/11/18 09:32:03;;;;;;;;;;;13.10;56.00;;;;;;5072275;28;19996;-70
2021/11/18 09:34:29;;;;;;;;;;;13.10;56.00;;;;;;5072110;28;20251;-71
2021/11/18 09:36:55;;;;;;;;;;;13.10;56.00;;;;;;5070870;28;20325;-71
2021/11/18 09:39:21;;;;;;;;;;;13.00;56.00;;;;;;5074187;28;19971;-71
2021/11/18 09:41:47;;;;;;;;;;;13.00;56.00;;;;;;5090711;28;19923;-71
2021/11/18 09:44:31;;;;;;;;;;;13.00;56.10;;;;;;5055333;28;19908;-71
2021/11/18 09:47:09;;;;;;;;;;;13.00;56.20;;;;;;5051878;28;19909;-70
2021/11/18 09:49:53;;;;;;;;;;;12.90;56.20;;;;;;5051994;28;19944;-71
2021/11/18 09:52:21;;;;;;;;;;;12.90;56.20;;;;;;5050693;28;19916;-71
2021/11/18 09:55:16;;;;;;;;;;;12.90;56.30;;;;;;5051920;28;19909;-71
2021/11/18 09:57:53;;;;;;;;;;;12.90;56.30;;;;;;5054045;28;20366;-71
2021/11/18 10:00:18;;;;;;;;;;;12.90;56.30;;;;;;5072000;28;19919;-70
2021/11/18 10:02:45;;;;;;;;;;;12.90;56.30;;;;;;5071750;28;20250;-71
2021/11/18 10:05:17;;;;;;;;;;;13.00;56.30;;;;;;5072046;28;19909;-71
2021/11/18 10:07:44;;;;;;;;;;;13.00;56.30;;;;;;5072032;28;20601;-71
2021/11/18 10:10:12;;;;;;;;;;;13.00;56.30;;;;;;5071605;28;20009;-70
2021/11/18 10:12:55;;;;;;;;;;;13.00;56.30;;;;;;5070597;28;19958;-70
2021/11/18 10:15:23;;;;;;;;;;;13.00;56.20;;;;;;5071621;28;19920;-70
2021/11/18 10:17:54;;;;;;;;;;;13.00;56.20;;;;;;5070403;28;20289;-70
2021/11/18 10:20:19;;;;;;;;;;;13.00;56.20;;;;;;5070481;28;19908;-70
2021/11/18 10:22:47;;;;;;;;;;;13.00;56.30;;;;;;5071435;28;19935;-70
2021/11/18 10:25:29;;;;;;;;;;;13.00;56.30;;;;;;5051713;28;19913;-71
2021/11/18 10:27:57;;;;;;;;;;;13.00;56.40;;;;;;5051782;28;19919;-71
2021/11/18 10:30:38;;;;;;;;;;;13.00;56.40;;;;;;5051615;28;19956;-72
2021/11/18 10:33:09;;;;;;;;;;;13.10;56.40;;;;;;5051639;28;19909;-71
2021/11/18 10:35:35;;;;;;;;;;;13.10;56.40;;;;;;5051666;28;19909;-71
2021/11/18 10:38:12;;;;;;;;;;;13.10;56.30;;;;;;5074766;28;20284;-71
2021/11/18 10:40:49;;;;;;;;;;;13.10;56.30;;;;;;5072511;28;19939;-71
2021/11/18 10:43:17;;;;;;;;;;;13.20;56.40;;;;;;5053943;28;19916;-71
2021/11/18 10:45:45;;;;;;;;;;;13.20;56.40;;;;;;5067124;28;20316;-71
2021/11/18 10:48:23;;;;;;;;;;;13.30;56.20;;;;;;5075189;28;19916;-71
2021/11/18 10:50:57;;;;;;;;;;;13.30;56.10;;;;;;5073640;28;20361;-70
2021/11/18 10:53:23;;;;;;;;;;;13.30;56.10;;;;;;5073381;28;20444;-70
2021/11/18 10:55:51;;;;;;;;;;;13.40;56.00;;;;;;5084016;28;20033;-71
2021/11/18 10:58:16;;;;;;;;;;;13.40;56.00;;;;;;5076035;28;19952;-71
2021/11/18 11:00:44;;;;;;;;;;;13.40;55.90;;;;;;5079045;28;19951;-71
2021/11/18 11:03:30;;;;;;;;;;;13.40;55.70;;;;;;5074999;28;19908;-71
2021/11/18 11:06:14;;;;;;;;;;;13.40;55.80;;;;;;5073279;28;19909;-71
2021/11/18 11:08:42;;;;;;;;;;;13.40;55.70;;;;;;5074851;28;19930;-71
2021/11/18 11:11:13;;;;;;;;;;;13.40;55.70;;;;;;5076016;28;19913;-71
2021/11/18 11:13:39;;;;;;;;;;;13.40;55.70;;;;;;5082258;28;19991;-71
2021/11/18 11:16:10;;;;;;;;;;;13.40;55.70;;;;;;5074386;28;20347;-71
2021/11/18 11:18:44;;;;;;;;;;;13.30;55.60;;;;;;5074345;28;20373;-71
2021/11/18 11:21:28;;;;;;;;;;;13.40;55.70;;;;;;5079810;28;19970;-71
2021/11/18 11:23:56;;;;;;;;;;;13.40;55.70;;;;;;5085365;28;19916;-71
2021/11/18 11:26:41;;;;;;;;;;;13.40;55.60;;;;;;5072856;28;20281;-71
2021/11/18 11:29:25;;;;;;;;;;;13.30;55.50;;;;;;5082031;28;19946;-74
2021/11/18 11:32:02;;;;;;;;;;;13.30;55.50;;;;;;5092976;28;19908;-70
2021/11/18 11:34:31;;;;;;;;;;;13.30;55.50;;;;;;5094445;28;20273;-70
2021/11/18 11:37:02;;;;;;;;;;;13.30;55.50;;;;;;5075248;28;19939;-70
2021/11/18 11:39:48;;;;;;;;;;;13.30;55.60;;;;;;5073961;28;20002;-70
2021/11/18 11:42:19;;;;;;;;;;;13.40;55.70;;;;;;5074045;28;19977;-70
2021/11/18 11:44:54;;;;;;;;;;;13.40;55.70;;;;;;5074151;28;19909;-70
2021/11/18 11:47:32;;;;;;;;;;;13.50;55.60;;;;;;5074091;28;19954;-70
2021/11/18 11:50:02;;;;;;;;;;;13.50;55.60;;;;;;5073246;28;19908;-70
2021/11/18 11:52:38;;;;;;;;;;;13.60;55.50;;;;;;5073824;28;19904;-70
2021/11/18 11:55:09;;;;;;;;;;;13.60;55.40;;;;;;5073910;28;19913;-70
2021/11/18 11:57:39;;;;;;;;;;;13.70;55.40;;;;;;5072630;28;19911;-70
2021/11/18 12:00:05;;;;;;;;;;;13.70;55.30;;;;;;5074179;28;19915;-70
2021/11/18 12:02:34;;;;;;;;;;;13.70;55.20;;;;;;5073779;28;19912;-70
2021/11/18 12:05:09;;;;;;;;;;;13.70;55.20;;;;;;5073509;28;19909;-70
2021/11/18 12:07:41;;;;;;;;;;;13.70;55.10;;;;;;5072310;28;19909;-70
2021/11/18 12:10:25;;;;;;;;;;;13.70;55.00;;;;;;5073572;28;19909;-70
2021/11/18 12:12:59;;;;;;;;;;;13.70;55.00;;;;;;5073885;28;19931;-70
2021/11/18 12:15:25;;;;;;;;;;;13.70;55.00;;;;;;5072176;28;19924;-70
2021/11/18 12:17:59;;;;;;;;;;;13.70;55.00;;;;;;5072093;28;19908;-70
2021/11/18 12:20:27;;;;;;;;;;;13.70;55.00;;;;;;5052879;28;20297;-70
2021/11/18 12:22:55;;;;;;;;;;;13.80;55.00;;;;;;5052855;28;19994;-70
2021/11/18 12:25:41;;;;;;;;;;;13.80;55.00;;;;;;5053246;28;19955;-71
2021/11/18 12:28:13;;;;;;;;;;;13.80;54.90;;;;;;5053166;28;20391;-71
2021/11/18 12:30:57;;;;;;;;;;;13.80;54.80;;;;;;5053222;28;19915;-70
2021/11/18 12:33:23;;;;;;;;;;;13.80;54.80;;;;;;5053179;28;19909;-70
2021/11/18 12:36:01;;;;;;;;;;;13.80;54.70;;;;;;5052864;28;19920;-70
2021/11/18 12:38:26;;;;;;;;;;;13.80;54.80;;;;;;5058697;28;20350;-70
2021/11/18 12:41:07;;;;;;;;;;;13.80;54.80;;;;;;5071462;28;19912;-70
2021/11/18 12:43:55;;;;;;;;;;;13.70;54.70;;;;;;5072869;28;20007;-70
2021/11/18 12:46:41;;;;;;;;;;;13.70;54.80;;;;;;5072581;28;19912;-69
2021/11/18 12:49:09;;;;;;;;;;;13.70;54.90;;;;;;5064931;28;20015;-70
2021/11/18 12:52:01;;;;;;;;;;;13.70;54.90;;;;;;5072631;28;19974;-70
2021/11/18 12:54:27;;;;;;;;;;;13.60;54.80;;;;;;5056286;28;20003;-70
2021/11/18 12:56:54;;;;;;;;;;;13.60;54.90;;;;;;5072555;28;20046;-70
2021/11/18 12:59:47;;;;;;;;;;;13.60;55.00;;;;;;5072577;28;19913;-69
2021/11/18 13:02:37;;;;;;;;;;;13.60;55.00;;;;;;5072405;28;19913;-70
2021/11/18 13:05:23;;;;;;;;;;;13.50;54.90;;;;;;5072150;28;19920;-70
2021/11/18 13:07:48;;;;;;;;;;;13.50;55.00;;;;;;5064678;28;19940;-70
2021/11/18 13:10:20;;;;;;;;;;;13.50;55.00;;;;;;5071192;28;20303;-70
2021/11/18 13:12:58;;;;;;;;;;;13.50;55.00;;;;;;5072288;28;20394;-70
2021/11/18 13:15:32;;;;;;;;;;;13.50;55.00;;;;;;5072077;28;19927;-70
2021/11/18 13:17:59;;;;;;;;;;;13.40;54.90;;;;;;5072405;28;19919;-70
2021/11/18 13:20:43;;;;;;;;;;;13.40;55.00;;;;;;5072406;28;20008;-70
2021/11/18 13:23:24;;;;;;;;;;;13.40;55.00;;;;;;5072278;28;19919;-69
2021/11/18 13:25:51;;;;;;;;;;;13.40;55.10;;;;;;5072000;28;19909;-69
2021/11/18 13:28:40;;;;;;;;;;;13.30;55.00;;;;;;5072249;28;19955;-69
2021/11/18 13:31:06;;;;;;;;;;;13.30;55.10;;;;;;5072104;28;19909;-68
2021/11/18 13:33:35;;;;;;;;;;;13.30;55.10;;;;;;5072084;28;19909;-68
2021/11/18 13:36:06;;;;;;;;;;;13.30;55.10;;;;;;5072309;28;19996;-69
2021/11/18 13:38:37;;;;;;;;;;;13.30;55.20;;;;;;5070813;28;19909;-68
2021/11/18 13:41:05;;;;;;;;;;;13.20;55.20;;;;;;5070693;28;19915;-69
2021/11/18 13:43:45;;;;;;;;;;;13.20;55.20;;;;;;5071995;28;19951;-69
2021/11/18 13:46:13;;;;;;;;;;;13.10;55.20;;;;;;5066648;28;20365;-70
2021/11/18 13:49:01;;;;;;;;;;;13.10;55.20;;;;;;5077304;28;19912;-69
2021/11/18 13:51:48;;;;;;;;;;;13.10;55.30;;;;;;5079271;28;19912;-70
2021/11/18 13:54:31;;;;;;;;;;;13.10;55.30;;;;;;5086093;28;19912;-71
2021/11/18 13:56:57;;;;;;;;;;;13.10;55.40;;;;;;5092051;28;20289;-70
2021/11/18 13:59:44;;;;;;;;;;;13.00;55.40;;;;;;5092244;28;19930;-70
2021/11/18 14:02:12;;;;;;;;;;;13.00;55.40;;;;;;5091871;28;19965;-70
2021/11/18 14:04:46;;;;;;;;;;;13.00;55.50;;;;;;5085511;28;19912;-70
2021/11/18 14:07:12;;;;;;;;;;;13.00;55.50;;;;;;5089126;28;19912;-70
2021/11/18 14:09:41;;;;;;;;;;;13.00;55.50;;;;;;5079197;28;19917;-70
2021/11/18 14:12:15;;;;;;;;;;;13.00;55.60;;;;;;5089157;28;20377;-70
2021/11/18 14:14:43;;;;;;;;;;;13.00;55.60;;;;;;5055549;28;19917;-71
2021/11/18 14:17:22;;;;;;;;;;;13.00;55.60;;;;;;5059269;28;19917;-71
2021/11/18 14:20:04;;;;;;;;;;;13.00;55.70;;;;;;5067068;28;20289;-69
2021/11/18 14:22:30;;;;;;;;;;;13.00;55.70;;;;;;5075417;28;19939;-68
2021/11/18 14:24:57;;;;;;;;;;;13.00;55.70;;;;;;5074910;28;20381;-69